sensor_id;sensor_type;location;lat;lon;timestamp;pressure;altitude;pressure_sealevel;temperature;humidity
28306;BME280;7516;43.570;1.448;2023-07-28T00:02:05;99462.56;;;21.25;77.53
28306;BME280;7516;43.570;1.448;2023-07-28T00:04:34;99470.94;;;21.34;77.24
28306;BME280;7516;43.570;1.448;2023-07-28T00:07:02;99470.50;;;21.42;76.66
28306;BME280;7516;43.570;1.448;2023-07-28T00:09:29;99470.72;;;21.62;76.64
28306;BME280;7516;43.570;1.448;2023-07-28T00:11:57;99461.56;;;21.53;76.43
28306;BME280;7516;43.570;1.448;2023-07-28T00:14:27;99470.78;;;21.67;76.08
28306;BME280;7516;43.570;1.448;2023-07-28T00:16:56;99470.97;;;21.61;75.28
28306;BME280;7516;43.570;1.448;2023-07-28T00:19:24;99476.69;;;21.48;74.76
28306;BME280;7516;43.570;1.448;2023-07-28T00:21:53;99470.84;;;21.51;75.42
28306;BME280;7516;43.570;1.448;2023-07-28T00:24:22;99469.69;;;21.63;75.89
28306;BME280;7516;43.570;1.448;2023-07-28T00:26:50;99476.09;;;21.89;75.62
28306;BME280;7516;43.570;1.448;2023-07-28T00:29:17;99487.47;;;21.80;74.47
28306;BME280;7516;43.570;1.448;2023-07-28T00:31:46;99483.81;;;21.91;74.71
28306;BME280;7516;43.570;1.448;2023-07-28T00:34:13;99496.84;;;22.09;74.26
28306;BME280;7516;43.570;1.448;2023-07-28T00:36:41;99500.44;;;22.20;73.77
28306;BME280;7516;43.570;1.448;2023-07-28T00:39:08;99504.47;;;22.22;73.34
28306;BME280;7516;43.570;1.448;2023-07-28T00:41:36;99500.28;;;22.31;72.85
28306;BME280;7516;43.570;1.448;2023-07-28T00:44:03;99505.22;;;22.18;72.37
28306;BME280;7516;43.570;1.448;2023-07-28T00:46:31;99501.56;;;22.29;72.32
28306;BME280;7516;43.570;1.448;2023-07-28T00:49:00;99501.09;;;22.32;72.26
28306;BME280;7516;43.570;1.448;2023-07-28T00:51:30;99499.75;;;22.34;71.88
28306;BME280;7516;43.570;1.448;2023-07-28T00:53:58;99500.78;;;22.28;71.98
28306;BME280;7516;43.570;1.448;2023-07-28T00:56:28;99501.13;;;22.37;71.75
28306;BME280;7516;43.570;1.448;2023-07-28T00:58:55;99492.63;;;22.45;71.27
28306;BME280;7516;43.570;1.448;2023-07-28T01:01:23;99491.56;;;22.46;71.00
28306;BME280;7516;43.570;1.448;2023-07-28T01:03:51;99489.94;;;22.40;70.81
28306;BME280;7516;43.570;1.448;2023-07-28T01:06:26;99496.09;;;22.45;70.89
28306;BME280;7516;43.570;1.448;2023-07-28T01:09:01;99497.63;;;22.36;70.49
28306;BME280;7516;43.570;1.448;2023-07-28T01:11:30;99487.63;;;22.22;70.70
28306;BME280;7516;43.570;1.448;2023-07-28T01:13:57;99484.91;;;22.17;71.17
28306;BME280;7516;43.570;1.448;2023-07-28T01:16:25;99483.34;;;22.21;70.99
28306;BME280;7516;43.570;1.448;2023-07-28T01:18:52;99475.09;;;22.22;71.71
28306;BME280;7516;43.570;1.448;2023-07-28T01:21:24;99474.78;;;22.19;71.96
28306;BME280;7516;43.570;1.448;2023-07-28T01:23:59;99483.34;;;22.21;71.33
28306;BME280;7516;43.570;1.448;2023-07-28T01:26:33;99488.44;;;22.22;71.77
28306;BME280;7516;43.570;1.448;2023-07-28T01:29:02;99489.41;;;22.11;70.78
28306;BME280;7516;43.570;1.448;2023-07-28T01:31:31;99504.06;;;21.87;70.83
28306;BME280;7516;43.570;1.448;2023-07-28T01:33:58;99501.84;;;21.78;72.13
28306;BME280;7516;43.570;1.448;2023-07-28T01:36:26;99502.06;;;21.72;70.91
28306;BME280;7516;43.570;1.448;2023-07-28T01:38:53;99494.94;;;21.83;72.48
28306;BME280;7516;43.570;1.448;2023-07-28T01:41:21;99490.13;;;21.80;73.88
28306;BME280;7516;43.570;1.448;2023-07-28T01:43:50;99498.81;;;21.70;72.34
28306;BME280;7516;43.570;1.448;2023-07-28T01:46:18;99493.03;;;21.78;74.03
28306;BME280;7516;43.570;1.448;2023-07-28T01:48:45;99486.56;;;21.96;73.56
28306;BME280;7516;43.570;1.448;2023-07-28T01:51:13;99470.84;;;21.99;72.60
28306;BME280;7516;43.570;1.448;2023-07-28T01:53:40;99473.88;;;21.81;71.30
28306;BME280;7516;43.570;1.448;2023-07-28T01:56:07;99477.59;;;21.58;72.83
28306;BME280;7516;43.570;1.448;2023-07-28T01:58:35;99477.78;;;21.73;73.04
28306;BME280;7516;43.570;1.448;2023-07-28T02:01:04;99474.16;;;21.85;73.95
28306;BME280;7516;43.570;1.448;2023-07-28T02:03:31;99475.25;;;21.62;73.43
28306;BME280;7516;43.570;1.448;2023-07-28T02:06:00;99468.97;;;21.73;73.69
28306;BME280;7516;43.570;1.448;2023-07-28T02:08:28;99468.25;;;21.34;73.22
28306;BME280;7516;43.570;1.448;2023-07-28T02:10:55;99465.53;;;21.12;74.88
28306;BME280;7516;43.570;1.448;2023-07-28T02:13:23;99459.97;;;21.14;76.93
28306;BME280;7516;43.570;1.448;2023-07-28T02:15:50;99458.47;;;21.18;77.33
28306;BME280;7516;43.570;1.448;2023-07-28T02:18:19;99468.22;;;21.12;74.94
28306;BME280;7516;43.570;1.448;2023-07-28T02:20:48;99464.34;;;21.20;76.37
28306;BME280;7516;43.570;1.448;2023-07-28T02:23:16;99467.28;;;21.18;76.08
28306;BME280;7516;43.570;1.448;2023-07-28T02:25:43;99466.16;;;21.36;76.77
28306;BME280;7516;43.570;1.448;2023-07-28T02:28:11;99466.66;;;21.33;76.83
28306;BME280;7516;43.570;1.448;2023-07-28T02:30:38;99462.25;;;21.05;75.06
28306;BME280;7516;43.570;1.448;2023-07-28T02:33:06;99466.91;;;20.93;77.13
28306;BME280;7516;43.570;1.448;2023-07-28T02:35:35;99460.53;;;20.77;78.74
28306;BME280;7516;43.570;1.448;2023-07-28T02:38:02;99449.09;;;20.60;79.21
28306;BME280;7516;43.570;1.448;2023-07-28T02:40:30;99455.09;;;20.89;78.54
28306;BME280;7516;43.570;1.448;2023-07-28T02:42:59;99450.09;;;20.92;79.59
28306;BME280;7516;43.570;1.448;2023-07-28T02:45:26;99447.97;;;20.56;79.53
28306;BME280;7516;43.570;1.448;2023-07-28T02:47:54;99443.53;;;20.61;79.75
28306;BME280;7516;43.570;1.448;2023-07-28T02:50:21;99444.41;;;20.67;80.94
28306;BME280;7516;43.570;1.448;2023-07-28T02:52:50;99449.47;;;20.69;81.75
28306;BME280;7516;43.570;1.448;2023-07-28T02:55:18;99446.94;;;20.57;82.09
28306;BME280;7516;43.570;1.448;2023-07-28T02:57:45;99449.84;;;20.55;81.70
28306;BME280;7516;43.570;1.448;2023-07-28T03:00:13;99450.06;;;20.54;81.73
28306;BME280;7516;43.570;1.448;2023-07-28T03:02:41;99448.69;;;20.51;80.70
28306;BME280;7516;43.570;1.448;2023-07-28T03:05:08;99452.19;;;20.35;82.96
28306;BME280;7516;43.570;1.448;2023-07-28T03:07:36;99446.00;;;20.18;83.59
28306;BME280;7516;43.570;1.448;2023-07-28T03:10:05;99440.19;;;20.04;84.82
28306;BME280;7516;43.570;1.448;2023-07-28T03:12:33;99443.59;;;20.33;84.74
28306;BME280;7516;43.570;1.448;2023-07-28T03:15:00;99440.75;;;20.23;84.34
28306;BME280;7516;43.570;1.448;2023-07-28T03:17:28;99428.75;;;20.20;84.97
28306;BME280;7516;43.570;1.448;2023-07-28T03:19:55;99430.50;;;20.15;86.16
28306;BME280;7516;43.570;1.448;2023-07-28T03:22:23;99433.25;;;20.03;86.72
28306;BME280;7516;43.570;1.448;2023-07-28T03:24:50;99430.41;;;19.76;88.69
28306;BME280;7516;43.570;1.448;2023-07-28T03:27:19;99426.19;;;19.80;88.12
28306;BME280;7516;43.570;1.448;2023-07-28T03:29:47;99426.34;;;20.19;88.37
28306;BME280;7516;43.570;1.448;2023-07-28T03:32:14;99419.63;;;20.16;87.06
28306;BME280;7516;43.570;1.448;2023-07-28T03:34:41;99423.72;;;20.07;86.52
28306;BME280;7516;43.570;1.448;2023-07-28T03:37:09;99432.69;;;20.01;87.88
28306;BME280;7516;43.570;1.448;2023-07-28T03:39:37;99433.47;;;19.85;89.39
28306;BME280;7516;43.570;1.448;2023-07-28T03:42:04;99432.13;;;19.71;91.18
28306;BME280;7516;43.570;1.448;2023-07-28T03:44:33;99428.59;;;19.65;90.93
28306;BME280;7516;43.570;1.448;2023-07-28T03:47:04;99431.66;;;19.74;90.80
28306;BME280;7516;43.570;1.448;2023-07-28T03:49:31;99423.28;;;19.65;92.18
28306;BME280;7516;43.570;1.448;2023-07-28T03:51:59;99433.16;;;19.41;93.57
28306;BME280;7516;43.570;1.448;2023-07-28T03:54:26;99437.81;;;19.34;94.25
28306;BME280;7516;43.570;1.448;2023-07-28T03:56:54;99436.28;;;19.38;94.12
28306;BME280;7516;43.570;1.448;2023-07-28T03:59:21;99437.91;;;19.39;95.27
28306;BME280;7516;43.570;1.448;2023-07-28T04:01:50;99436.00;;;19.23;95.68
28306;BME280;7516;43.570;1.448;2023-07-28T04:04:18;99445.34;;;19.26;96.30
28306;BME280;7516;43.570;1.448;2023-07-28T04:06:47;99432.75;;;19.21;96.81
28306;BME280;7516;43.570;1.448;2023-07-28T04:09:17;99437.16;;;19.15;97.63
28306;BME280;7516;43.570;1.448;2023-07-28T04:11:44;99432.78;;;19.09;97.02
28306;BME280;7516;43.570;1.448;2023-07-28T04:14:12;99439.22;;;19.25;97.81
28306;BME280;7516;43.570;1.448;2023-07-28T04:16:40;99441.66;;;19.15;97.83
28306;BME280;7516;43.570;1.448;2023-07-28T04:19:09;99432.44;;;19.06;98.14
28306;BME280;7516;43.570;1.448;2023-07-28T04:21:36;99430.13;;;19.09;99.12
28306;BME280;7516;43.570;1.448;2023-07-28T04:24:06;99432.09;;;19.02;99.78
28306;BME280;7516;43.570;1.448;2023-07-28T04:26:34;99426.41;;;19.10;98.65
28306;BME280;7516;43.570;1.448;2023-07-28T04:29:01;99429.22;;;19.04;97.69
28306;BME280;7516;43.570;1.448;2023-07-28T04:31:29;99428.63;;;19.02;98.24
28306;BME280;7516;43.570;1.448;2023-07-28T04:33:56;99435.78;;;19.01;97.68
28306;BME280;7516;43.570;1.448;2023-07-28T04:36:25;99428.16;;;19.16;98.23
28306;BME280;7516;43.570;1.448;2023-07-28T04:38:53;99433.25;;;19.06;97.53
28306;BME280;7516;43.570;1.448;2023-07-28T04:41:20;99430.59;;;18.95;98.42
28306;BME280;7516;43.570;1.448;2023-07-28T04:43:48;99433.97;;;18.90;99.42
28306;BME280;7516;43.570;1.448;2023-07-28T04:46:15;99440.19;;;18.84;100.00
28306;BME280;7516;43.570;1.448;2023-07-28T04:48:43;99454.88;;;18.75;100.00
28306;BME280;7516;43.570;1.448;2023-07-28T04:51:10;99456.16;;;18.72;100.00
28306;BME280;7516;43.570;1.448;2023-07-28T04:53:39;99463.53;;;18.70;100.00
28306;BME280;7516;43.570;1.448;2023-07-28T04:56:07;99447.13;;;18.73;100.00
28306;BME280;7516;43.570;1.448;2023-07-28T04:58:34;99437.28;;;19.09;100.00
28306;BME280;7516;43.570;1.448;2023-07-28T05:01:02;99424.75;;;19.33;100.00
28306;BME280;7516;43.570;1.448;2023-07-28T05:03:30;99427.28;;;19.51;99.97
28306;BME280;7516;43.570;1.448;2023-07-28T05:05:58;99429.06;;;19.22;98.13
28306;BME280;7516;43.570;1.448;2023-07-28T05:08:25;99428.16;;;19.05;99.20
28306;BME280;7516;43.570;1.448;2023-07-28T05:10:55;99430.69;;;19.00;100.00
28306;BME280;7516;43.570;1.448;2023-07-28T05:13:23;99430.09;;;19.21;100.00
28306;BME280;7516;43.570;1.448;2023-07-28T05:15:50;99438.28;;;19.31;98.94
28306;BME280;7516;43.570;1.448;2023-07-28T05:18:18;99446.03;;;19.33;98.58
28306;BME280;7516;43.570;1.448;2023-07-28T05:20:45;99456.31;;;19.29;99.21
28306;BME280;7516;43.570;1.448;2023-07-28T05:23:13;99453.78;;;19.23;98.82
28306;BME280;7516;43.570;1.448;2023-07-28T05:25:40;99449.59;;;19.27;98.88
28306;BME280;7516;43.570;1.448;2023-07-28T05:28:09;99437.00;;;19.34;98.78
28306;BME280;7516;43.570;1.448;2023-07-28T05:30:36;99443.38;;;19.33;98.29
28306;BME280;7516;43.570;1.448;2023-07-28T05:33:04;99443.44;;;19.38;98.14
28306;BME280;7516;43.570;1.448;2023-07-28T05:35:31;99459.50;;;19.43;98.72
28306;BME280;7516;43.570;1.448;2023-07-28T05:37:59;99457.19;;;19.46;98.47
28306;BME280;7516;43.570;1.448;2023-07-28T05:40:26;99457.19;;;19.46;98.16
28306;BME280;7516;43.570;1.448;2023-07-28T05:42:54;99451.44;;;19.49;98.05
28306;BME280;7516;43.570;1.448;2023-07-28T05:45:23;99454.16;;;19.54;97.87
28306;BME280;7516;43.570;1.448;2023-07-28T05:47:50;99450.25;;;19.57;97.64
28306;BME280;7516;43.570;1.448;2023-07-28T05:50:18;99446.06;;;19.61;97.73
28306;BME280;7516;43.570;1.448;2023-07-28T05:52:45;99449.06;;;19.65;98.00
28306;BME280;7516;43.570;1.448;2023-07-28T05:55:13;99452.06;;;19.68;97.62
28306;BME280;7516;43.570;1.448;2023-07-28T05:57:40;99462.06;;;19.78;97.60
28306;BME280;7516;43.570;1.448;2023-07-28T06:00:08;99462.63;;;19.80;97.16
28306;BME280;7516;43.570;1.448;2023-07-28T06:02:38;99461.34;;;19.82;97.09
28306;BME280;7516;43.570;1.448;2023-07-28T06:05:06;99462.00;;;19.89;97.13
28306;BME280;7516;43.570;1.448;2023-07-28T06:07:34;99471.38;;;19.92;96.54
28306;BME280;7516;43.570;1.448;2023-07-28T06:10:01;99467.84;;;20.03;96.21
28306;BME280;7516;43.570;1.448;2023-07-28T06:12:29;99474.53;;;20.06;95.63
28306;BME280;7516;43.570;1.448;2023-07-28T06:14:56;99469.06;;;20.12;95.92
28306;BME280;7516;43.570;1.448;2023-07-28T06:17:24;99466.59;;;20.22;95.51
28306;BME280;7516;43.570;1.448;2023-07-28T06:19:55;99483.50;;;20.33;95.08
28306;BME280;7516;43.570;1.448;2023-07-28T06:22:22;99488.00;;;20.44;94.96
28306;BME280;7516;43.570;1.448;2023-07-28T06:24:50;99483.25;;;20.63;94.52
28306;BME280;7516;43.570;1.448;2023-07-28T06:27:17;99488.97;;;20.72;93.88
28306;BME280;7516;43.570;1.448;2023-07-28T06:29:45;99491.97;;;20.75;93.16
28306;BME280;7516;43.570;1.448;2023-07-28T06:32:12;99499.44;;;20.78;92.74
28306;BME280;7516;43.570;1.448;2023-07-28T06:34:40;99494.91;;;20.79;92.56
28306;BME280;7516;43.570;1.448;2023-07-28T06:37:09;99487.50;;;20.81;92.32
28306;BME280;7516;43.570;1.448;2023-07-28T06:39:36;99493.06;;;20.79;92.62
28306;BME280;7516;43.570;1.448;2023-07-28T06:42:04;99495.16;;;20.77;92.45
28306;BME280;7516;43.570;1.448;2023-07-28T06:44:32;99495.16;;;20.77;92.70
28306;BME280;7516;43.570;1.448;2023-07-28T06:46:59;99504.28;;;20.81;92.60
28306;BME280;7516;43.570;1.448;2023-07-28T06:49:27;99505.34;;;20.80;92.60
28306;BME280;7516;43.570;1.448;2023-07-28T06:51:54;99502.09;;;20.78;92.20
28306;BME280;7516;43.570;1.448;2023-07-28T06:54:23;99499.69;;;20.77;92.41
28306;BME280;7516;43.570;1.448;2023-07-28T06:56:50;99508.00;;;20.80;92.75
28306;BME280;7516;43.570;1.448;2023-07-28T06:59:18;99510.72;;;20.85;92.08
28306;BME280;7516;43.570;1.448;2023-07-28T07:01:45;99512.97;;;20.93;92.22
28306;BME280;7516;43.570;1.448;2023-07-28T07:04:13;99513.13;;;21.03;92.13
28306;BME280;7516;43.570;1.448;2023-07-28T07:06:40;99510.03;;;21.12;91.81
28306;BME280;7516;43.570;1.448;2023-07-28T07:09:08;99499.25;;;21.18;91.60
28306;BME280;7516;43.570;1.448;2023-07-28T07:11:37;99499.31;;;21.23;91.33
28306;BME280;7516;43.570;1.448;2023-07-28T07:14:05;99497.03;;;21.32;91.00
28306;BME280;7516;43.570;1.448;2023-07-28T07:16:32;99501.88;;;21.35;90.43
28306;BME280;7516;43.570;1.448;2023-07-28T07:19:00;99499.50;;;21.38;89.88
28306;BME280;7516;43.570;1.448;2023-07-28T07:21:28;99499.88;;;21.47;90.16
28306;BME280;7516;43.570;1.448;2023-07-28T07:23:55;99508.56;;;21.59;89.48
28306;BME280;7516;43.570;1.448;2023-07-28T07:26:23;99509.13;;;21.61;89.04
28306;BME280;7516;43.570;1.448;2023-07-28T07:28:52;99513.47;;;21.67;88.37
28306;BME280;7516;43.570;1.448;2023-07-28T07:31:19;99511.34;;;21.69;87.68
28306;BME280;7516;43.570;1.448;2023-07-28T07:33:47;99513.03;;;21.75;88.01
28306;BME280;7516;43.570;1.448;2023-07-28T07:36:15;99515.75;;;21.81;87.47
28306;BME280;7516;43.570;1.448;2023-07-28T07:38:44;99521.69;;;21.88;87.21
28306;BME280;7516;43.570;1.448;2023-07-28T07:41:12;99518.09;;;21.99;86.97
28306;BME280;7516;43.570;1.448;2023-07-28T07:43:42;99518.59;;;21.96;86.45
28306;BME280;7516;43.570;1.448;2023-07-28T07:46:11;99519.25;;;22.08;86.63
28306;BME280;7516;43.570;1.448;2023-07-28T07:48:38;99522.66;;;22.25;85.78
28306;BME280;7516;43.570;1.448;2023-07-28T07:51:06;99524.31;;;22.31;84.95
28306;BME280;7516;43.570;1.448;2023-07-28T07:53:33;99522.22;;;22.38;84.80
28306;BME280;7516;43.570;1.448;2023-07-28T07:56:02;99528.97;;;22.46;84.33
28306;BME280;7516;43.570;1.448;2023-07-28T07:58:30;99531.47;;;22.58;83.77
28306;BME280;7516;43.570;1.448;2023-07-28T08:00:58;99535.25;;;22.62;83.01
28306;BME280;7516;43.570;1.448;2023-07-28T08:03:26;99521.00;;;22.78;81.19
28306;BME280;7516;43.570;1.448;2023-07-28T08:05:54;99531.13;;;22.76;80.11
28306;BME280;7516;43.570;1.448;2023-07-28T08:08:22;99522.56;;;22.79;80.96
28306;BME280;7516;43.570;1.448;2023-07-28T08:10:49;99521.31;;;22.86;80.48
28306;BME280;7516;43.570;1.448;2023-07-28T08:13:17;99527.00;;;22.95;79.81
28306;BME280;7516;43.570;1.448;2023-07-28T08:15:45;99521.69;;;23.05;79.75
28306;BME280;7516;43.570;1.448;2023-07-28T08:18:13;99524.66;;;23.09;78.03
28306;BME280;7516;43.570;1.448;2023-07-28T08:20:42;99518.56;;;23.18;78.56
28306;BME280;7516;43.570;1.448;2023-07-28T08:23:09;99513.84;;;23.36;78.26
28306;BME280;7516;43.570;1.448;2023-07-28T08:25:37;99536.66;;;23.48;76.24
28306;BME280;7516;43.570;1.448;2023-07-28T08:28:05;99524.63;;;23.51;76.66
28306;BME280;7516;43.570;1.448;2023-07-28T08:30:32;99527.06;;;23.57;75.89
28306;BME280;7516;43.570;1.448;2023-07-28T08:33:00;99528.97;;;23.67;75.61
28306;BME280;7516;43.570;1.448;2023-07-28T08:35:28;99517.72;;;23.60;75.26
28306;BME280;7516;43.570;1.448;2023-07-28T08:37:57;99516.69;;;23.71;75.04
28306;BME280;7516;43.570;1.448;2023-07-28T08:40:25;99517.75;;;23.75;74.09
28306;BME280;7516;43.570;1.448;2023-07-28T08:42:54;99514.53;;;23.68;72.92
28306;BME280;7516;43.570;1.448;2023-07-28T08:45:21;99515.06;;;23.70;73.87
28306;BME280;7516;43.570;1.448;2023-07-28T08:47:50;99514.56;;;23.78;73.38
28306;BME280;7516;43.570;1.448;2023-07-28T08:50:18;99514.31;;;23.75;71.74
28306;BME280;7516;43.570;1.448;2023-07-28T08:52:46;99511.34;;;23.76;71.72
28306;BME280;7516;43.570;1.448;2023-07-28T08:55:17;99519.66;;;23.85;71.72
28306;BME280;7516;43.570;1.448;2023-07-28T08:57:44;99514.34;;;23.90;71.09
28306;BME280;7516;43.570;1.448;2023-07-28T09:00:12;99518.09;;;24.04;70.69
28306;BME280;7516;43.570;1.448;2023-07-28T09:02:41;99520.06;;;24.24;70.76
28306;BME280;7516;43.570;1.448;2023-07-28T09:05:17;99515.22;;;24.46;69.88
28306;BME280;7516;43.570;1.448;2023-07-28T09:07:45;99519.81;;;24.51;68.75
28306;BME280;7516;43.570;1.448;2023-07-28T09:10:13;99529.72;;;24.50;68.16
28306;BME280;7516;43.570;1.448;2023-07-28T09:12:48;99528.63;;;24.56;67.72
28306;BME280;7516;43.570;1.448;2023-07-28T09:15:16;99523.00;;;24.58;67.64
28306;BME280;7516;43.570;1.448;2023-07-28T09:17:44;99529.97;;;24.74;67.97
28306;BME280;7516;43.570;1.448;2023-07-28T09:20:14;99514.16;;;24.93;67.68
28306;BME280;7516;43.570;1.448;2023-07-28T09:22:42;99519.50;;;25.08;66.74
28306;BME280;7516;43.570;1.448;2023-07-28T09:25:14;99519.22;;;25.15;65.34
28306;BME280;7516;43.570;1.448;2023-07-28T09:27:49;99523.78;;;25.09;63.08
28306;BME280;7516;43.570;1.448;2023-07-28T09:30:17;99528.09;;;25.15;62.74
28306;BME280;7516;43.570;1.448;2023-07-28T09:32:48;99530.47;;;25.22;62.63
28306;BME280;7516;43.570;1.448;2023-07-28T09:35:16;99536.63;;;25.27;60.87
28306;BME280;7516;43.570;1.448;2023-07-28T09:37:46;99530.97;;;25.34;60.33
28306;BME280;7516;43.570;1.448;2023-07-28T09:40:16;99528.53;;;25.37;59.27
28306;BME280;7516;43.570;1.448;2023-07-28T09:42:45;99538.22;;;25.38;58.32
28306;BME280;7516;43.570;1.448;2023-07-28T09:45:17;99528.06;;;25.20;59.22
28306;BME280;7516;43.570;1.448;2023-07-28T09:47:45;99532.56;;;25.35;60.18
28306;BME280;7516;43.570;1.448;2023-07-28T09:50:15;99526.41;;;25.39;59.33
28306;BME280;7516;43.570;1.448;2023-07-28T09:52:45;99519.38;;;25.43;59.57
28306;BME280;7516;43.570;1.448;2023-07-28T09:55:13;99523.16;;;25.42;59.03
28306;BME280;7516;43.570;1.448;2023-07-28T09:57:45;99522.06;;;25.43;58.60
28306;BME280;7516;43.570;1.448;2023-07-28T10:00:17;99527.94;;;25.56;59.30
28306;BME280;7516;43.570;1.448;2023-07-28T10:02:46;99524.50;;;25.50;57.92
28306;BME280;7516;43.570;1.448;2023-07-28T10:05:15;99527.94;;;25.56;58.52
28306;BME280;7516;43.570;1.448;2023-07-28T10:07:44;99529.56;;;25.57;58.38
28306;BME280;7516;43.570;1.448;2023-07-28T10:10:13;99516.94;;;25.67;59.35
28306;BME280;7516;43.570;1.448;2023-07-28T10:12:45;99513.13;;;25.73;57.93
28306;BME280;7516;43.570;1.448;2023-07-28T10:15:15;99520.78;;;25.95;58.27
28306;BME280;7516;43.570;1.448;2023-07-28T10:17:49;99527.09;;;25.75;57.07
28306;BME280;7516;43.570;1.448;2023-07-28T10:20:35;99524.34;;;25.85;56.88
28306;BME280;7516;43.570;1.448;2023-07-28T10:23:07;99527.53;;;25.93;57.83
28306;BME280;7516;43.570;1.448;2023-07-28T10:25:38;99522.94;;;25.98;57.07
28306;BME280;7516;43.570;1.448;2023-07-28T10:28:07;99520.66;;;26.15;55.61
28306;BME280;7516;43.570;1.448;2023-07-28T10:30:52;99508.00;;;26.26;56.50
28306;BME280;7516;43.570;1.448;2023-07-28T10:33:30;99502.75;;;26.45;56.45
28306;BME280;7516;43.570;1.448;2023-07-28T10:35:58;99500.06;;;26.45;55.00
28306;BME280;7516;43.570;1.448;2023-07-28T10:38:31;99513.03;;;26.33;55.43
28306;BME280;7516;43.570;1.448;2023-07-28T10:41:11;99505.47;;;26.40;55.37
28306;BME280;7516;43.570;1.448;2023-07-28T10:43:39;99494.16;;;26.43;54.00
28306;BME280;7516;43.570;1.448;2023-07-28T10:46:09;99493.31;;;26.47;53.22
28306;BME280;7516;43.570;1.448;2023-07-28T10:48:42;99495.09;;;26.57;53.87
28306;BME280;7516;43.570;1.448;2023-07-28T10:51:10;99494.00;;;26.63;53.11
28306;BME280;7516;43.570;1.448;2023-07-28T10:53:38;99491.69;;;26.80;53.42
28306;BME280;7516;43.570;1.448;2023-07-28T10:56:06;99499.22;;;26.78;52.36
28306;BME280;7516;43.570;1.448;2023-07-28T10:58:36;99496.53;;;26.78;52.99
28306;BME280;7516;43.570;1.448;2023-07-28T11:01:03;99487.78;;;26.96;52.72
28306;BME280;7516;43.570;1.448;2023-07-28T11:03:31;99482.94;;;26.93;51.93
28306;BME280;7516;43.570;1.448;2023-07-28T11:06:00;99483.00;;;26.83;51.40
28306;BME280;7516;43.570;1.448;2023-07-28T11:08:28;99475.81;;;26.79;51.64
28306;BME280;7516;43.570;1.448;2023-07-28T11:10:55;99485.06;;;26.68;51.88
28306;BME280;7516;43.570;1.448;2023-07-28T11:13:23;99479.50;;;26.88;52.51
28306;BME280;7516;43.570;1.448;2023-07-28T11:15:51;99473.41;;;26.77;51.89
28306;BME280;7516;43.570;1.448;2023-07-28T11:18:19;99468.97;;;26.91;52.03
28306;BME280;7516;43.570;1.448;2023-07-28T11:20:47;99470.66;;;27.11;52.39
28306;BME280;7516;43.570;1.448;2023-07-28T11:23:16;99477.75;;;27.26;51.97
28306;BME280;7516;43.570;1.448;2023-07-28T11:25:44;99476.59;;;27.32;51.45
28306;BME280;7516;43.570;1.448;2023-07-28T11:28:13;99464.16;;;27.36;50.93
28306;BME280;7516;43.570;1.448;2023-07-28T11:30:41;99461.09;;;27.24;50.71
28306;BME280;7516;43.570;1.448;2023-07-28T11:33:10;99457.53;;;27.05;50.10
28306;BME280;7516;43.570;1.448;2023-07-28T11:35:44;99458.44;;;26.95;51.83
28306;BME280;7516;43.570;1.448;2023-07-28T11:38:12;99460.38;;;27.37;51.25
28306;BME280;7516;43.570;1.448;2023-07-28T11:40:42;99467.34;;;27.62;50.82
28306;BME280;7516;43.570;1.448;2023-07-28T11:43:10;99467.72;;;27.55;49.56
28306;BME280;7516;43.570;1.448;2023-07-28T11:45:37;99446.88;;;27.42;50.21
28306;BME280;7516;43.570;1.448;2023-07-28T11:48:06;99446.16;;;27.55;49.74
28306;BME280;7516;43.570;1.448;2023-07-28T11:50:38;99448.31;;;27.53;50.08
28306;BME280;7516;43.570;1.448;2023-07-28T11:53:08;99453.16;;;27.56;49.65
28306;BME280;7516;43.570;1.448;2023-07-28T11:55:36;99459.44;;;27.70;50.00
28306;BME280;7516;43.570;1.448;2023-07-28T11:58:06;99461.47;;;27.79;49.77
28306;BME280;7516;43.570;1.448;2023-07-28T12:00:35;99473.69;;;27.71;49.79
28306;BME280;7516;43.570;1.448;2023-07-28T12:03:05;99483.38;;;27.72;49.98
28306;BME280;7516;43.570;1.448;2023-07-28T12:05:36;99465.84;;;27.75;49.97
28306;BME280;7516;43.570;1.448;2023-07-28T12:08:04;99465.00;;;27.55;49.27
28306;BME280;7516;43.570;1.448;2023-07-28T12:10:31;99461.63;;;27.45;49.09
28306;BME280;7516;43.570;1.448;2023-07-28T12:13:05;99454.28;;;27.50;49.71
28306;BME280;7516;43.570;1.448;2023-07-28T12:15:34;99465.25;;;27.78;49.13
28306;BME280;7516;43.570;1.448;2023-07-28T12:18:06;99472.25;;;27.79;48.78
28306;BME280;7516;43.570;1.448;2023-07-28T12:20:35;99474.56;;;27.66;48.93
28306;BME280;7516;43.570;1.448;2023-07-28T12:23:03;99467.53;;;27.70;49.12
28306;BME280;7516;43.570;1.448;2023-07-28T12:25:31;99453.16;;;27.94;48.64
28306;BME280;7516;43.570;1.448;2023-07-28T12:27:59;99442.00;;;28.19;48.62
28306;BME280;7516;43.570;1.448;2023-07-28T12:30:28;99436.16;;;28.31;47.53
28306;BME280;7516;43.570;1.448;2023-07-28T12:32:55;99443.66;;;28.15;47.21
28306;BME280;7516;43.570;1.448;2023-07-28T12:35:24;99437.03;;;28.26;47.68
28306;BME280;7516;43.570;1.448;2023-07-28T12:37:57;99435.84;;;28.65;47.82
28306;BME280;7516;43.570;1.448;2023-07-28T12:40:27;99466.94;;;28.76;46.57
28306;BME280;7516;43.570;1.448;2023-07-28T12:42:55;99468.59;;;28.72;46.45
28306;BME280;7516;43.570;1.448;2023-07-28T12:45:23;99456.09;;;28.49;46.01
28306;BME280;7516;43.570;1.448;2023-07-28T12:47:53;99426.81;;;28.56;46.66
28306;BME280;7516;43.570;1.448;2023-07-28T12:50:21;99413.84;;;28.71;45.82
28306;BME280;7516;43.570;1.448;2023-07-28T12:52:48;99418.72;;;28.69;46.10
28306;BME280;7516;43.570;1.448;2023-07-28T12:55:17;99412.75;;;28.72;46.25
28306;BME280;7516;43.570;1.448;2023-07-28T12:57:46;99413.66;;;28.95;45.83
28306;BME280;7516;43.570;1.448;2023-07-28T13:00:15;99424.91;;;29.02;45.03
28306;BME280;7516;43.570;1.448;2023-07-28T13:02:44;99431.06;;;28.89;45.15
28306;BME280;7516;43.570;1.448;2023-07-28T13:05:14;99430.38;;;29.11;45.48
28306;BME280;7516;43.570;1.448;2023-07-28T13:07:43;99437.38;;;28.85;44.16
28306;BME280;7516;43.570;1.448;2023-07-28T13:10:11;99419.78;;;28.87;44.56
28306;BME280;7516;43.570;1.448;2023-07-28T13:12:39;99425.00;;;28.84;45.02
28306;BME280;7516;43.570;1.448;2023-07-28T13:15:07;99428.88;;;29.18;44.15
28306;BME280;7516;43.570;1.448;2023-07-28T13:17:35;99416.19;;;29.19;44.45